Time;durP1;ratioP1;P1;durP2;ratioP2;P2;SDS_P1;SDS_P2;PMS_P1;PMS_P2;Temp;Humidity;BMP_temperature;BMP_pressure;BME280_temperature;BME280_humidity;BME280_pressure;Samples;Min_cycle;Max_cycle;Signal;HPM_P1;HPM_P2
2021/01/13 00:01:10;;;;;;;8.20;7.40;;;1.90;99.30;;;;;;5019991;28;20224;-89
2021/01/13 00:03:36;;;;;;;7.60;6.97;;;1.90;99.40;;;;;;5019768;28;20181;-89
2021/01/13 00:06:01;;;;;;;8.43;7.63;;;1.90;99.60;;;;;;5018411;28;20221;-89
2021/01/13 00:08:27;;;;;;;8.30;7.50;;;1.90;99.40;;;;;;5018528;28;20255;-89
2021/01/13 00:10:53;;;;;;;9.43;8.53;;;1.90;98.70;;;;;;5018743;28;20181;-89
2021/01/13 00:13:18;;;;;;;8.67;7.87;;;1.90;99.20;;;;;;5018228;28;20205;-88
2021/01/13 00:15:44;;;;;;;8.97;8.17;;;2.00;99.30;;;;;;5019222;28;20186;-88
2021/01/13 00:18:12;;;;;;;9.90;9.00;;;2.00;99.30;;;;;;5020429;28;20277;-89
2021/01/13 00:20:37;;;;;;;8.87;8.03;;;2.00;99.40;;;;;;5019847;28;20668;-89
2021/01/13 00:23:04;;;;;;;9.30;8.33;;;2.00;99.60;;;;;;5020890;28;20185;-89
2021/01/13 00:25:29;;;;;;;8.47;7.67;;;1.90;99.40;;;;;;5021139;28;20185;-88
2021/01/13 00:27:55;;;;;;;9.63;8.63;;;2.00;99.60;;;;;;5020305;28;20217;-89
2021/01/13 00:30:21;;;;;;;9.73;8.83;;;1.90;99.60;;;;;;5023930;28;20261;-89
2021/01/13 00:32:47;;;;;;;8.77;7.93;;;2.00;99.10;;;;;;5021172;28;20182;-88
2021/01/13 00:35:14;;;;;;;8.73;8.00;;;2.00;99.90;;;;;;5020901;28;20189;-89
2021/01/13 00:37:40;;;;;;;9.17;8.27;;;2.10;99.80;;;;;;5020594;28;20612;-89
2021/01/13 00:40:08;;;;;;;9.97;9.07;;;2.00;99.00;;;;;;5021297;28;20176;-89
2021/01/13 00:42:45;;;;;;;9.83;8.63;;;2.00;99.10;;;;;;5019536;28;20248;-89
2021/01/13 00:45:12;;;;;;;8.97;8.13;;;2.00;99.30;;;;;;5019481;28;20169;-89
2021/01/13 00:47:40;;;;;;;10.03;9.03;;;2.00;99.30;;;;;;5018471;28;20245;-88
2021/01/13 00:50:06;;;;;;;9.70;8.80;;;2.00;99.20;;;;;;5018673;28;20201;-89
2021/01/13 00:52:32;;;;;;;9.07;8.17;;;2.00;99.80;;;;;;5018408;28;20189;-88
2021/01/13 00:54:57;;;;;;;9.40;8.60;;;1.90;99.90;;;;;;5018232;28;20209;-89
2021/01/13 00:57:23;;;;;;;9.67;8.67;;;1.90;99.90;;;;;;5018903;28;20185;-89
2021/01/13 00:59:49;;;;;;;9.73;8.83;;;1.90;99.90;;;;;;5018823;28;20197;-89
2021/01/13 01:02:14;;;;;;;9.70;8.80;;;1.90;99.90;;;;;;5018182;28;20177;-89
2021/01/13 01:04:40;;;;;;;9.40;8.10;;;1.90;99.90;;;;;;5019542;28;20226;-88
2021/01/13 01:07:07;;;;;;;9.63;8.70;;;2.00;99.90;;;;;;5020412;28;20637;-88
2021/01/13 01:09:33;;;;;;;9.40;8.47;;;2.00;99.90;;;;;;5020057;28;20228;-89
2021/01/13 01:11:58;;;;;;;9.43;8.63;;;2.00;99.90;;;;;;5020442;28;20185;-89
2021/01/13 01:14:24;;;;;;;7.93;7.23;;;2.10;99.90;;;;;;5019907;28;20209;-89
2021/01/13 01:16:50;;;;;;;9.47;8.67;;;2.00;99.90;;;;;;5020295;28;20232;-89
2021/01/13 01:19:16;;;;;;;14.40;9.40;;;2.10;99.90;;;;;;5003032;28;20697;-89
2021/01/13 01:21:44;;;;;;;8.97;8.17;;;2.10;99.90;;;;;;5022039;28;20212;-89
2021/01/13 01:24:10;;;;;;;8.97;8.17;;;2.10;99.90;;;;;;5005143;28;20176;-89
2021/01/13 01:26:44;;;;;;;9.30;8.40;;;2.10;99.90;;;;;;5020698;28;20178;-89
2021/01/13 01:29:10;;;;;;;9.07;8.27;;;2.20;99.90;;;;;;5018304;28;20213;-89
2021/01/13 01:31:35;;;;;;;9.10;8.20;;;2.20;99.90;;;;;;5018190;28;20189;-89
2021/01/13 01:34:01;;;;;;;9.50;8.67;;;2.20;99.90;;;;;;5019579;28;20292;-89
2021/01/13 01:36:27;;;;;;;8.37;7.67;;;2.20;99.90;;;;;;5020451;28;20185;-89
2021/01/13 01:38:52;;;;;;;8.23;7.53;;;2.20;99.90;;;;;;5026093;28;20281;-88
2021/01/13 01:41:18;;;;;;;8.80;8.00;;;2.30;99.90;;;;;;5021592;28;20220;-89
2021/01/13 01:43:45;;;;;;;8.60;7.80;;;2.30;99.90;;;;;;4987009;28;20205;-89
2021/01/13 01:46:12;;;;;;;8.90;8.10;;;2.30;99.40;;;;;;5002885;28;20186;-88
2021/01/13 01:48:53;;;;;;;9.17;8.27;;;2.30;98.80;;;;;;5005027;28;20205;-89
2021/01/13 01:51:24;;;;;;;10.17;9.13;;;2.20;98.50;;;;;;5022827;28;20237;-88
2021/01/13 01:54:06;;;;;;;9.83;8.97;;;2.10;98.50;;;;;;5022718;28;20221;-88
2021/01/13 01:56:37;;;;;;;10.37;9.47;;;2.00;98.80;;;;;;5021827;28;20224;-88
2021/01/13 01:59:07;;;;;;;9.53;8.40;;;2.00;98.10;;;;;;5004625;28;20201;-88
2021/01/13 02:01:36;;;;;;;8.90;8.00;;;2.00;98.90;;;;;;5021864;28;20191;-89
2021/01/13 02:04:06;;;;;;;9.63;8.73;;;1.90;99.00;;;;;;5022348;28;20259;-88
2021/01/13 02:06:42;;;;;;;9.10;8.30;;;1.90;99.30;;;;;;5022437;28;20186;-88
2021/01/13 02:09:08;;;;;;;8.47;7.70;;;1.90;99.40;;;;;;5004325;28;20209;-88
2021/01/13 02:11:38;;;;;;;8.73;7.93;;;1.90;99.50;;;;;;5020902;28;20182;-88
2021/01/13 02:14:04;;;;;;;9.50;8.63;;;1.90;99.60;;;;;;5020303;28;20430;-88
2021/01/13 02:16:31;;;;;;;9.77;8.77;;;2.00;98.90;;;;;;5003558;28;20242;-88
2021/01/13 02:19:00;;;;;;;8.87;7.97;;;1.90;98.80;;;;;;5020367;28;20190;-88
2021/01/13 02:21:31;;;;;;;8.67;7.87;;;1.90;98.70;;;;;;5020641;28;20570;-88
2021/01/13 02:24:09;;;;;;;8.60;7.80;;;1.80;99.90;;;;;;5002701;28;20177;-89
2021/01/13 02:27:08;;;;;;;9.57;8.67;;;1.80;98.80;;;;;;5020910;28;20544;-89
2021/01/13 02:29:39;;;;;;;10.13;9.13;;;1.90;98.50;;;;;;5022267;28;20209;-90
2021/01/13 02:32:10;;;;;;;9.70;8.83;;;1.80;97.50;;;;;;5024248;28;20166;-88
2021/01/13 02:34:45;;;;;;;8.97;8.07;;;1.70;98.20;;;;;;5024154;28;20189;-88
2021/01/13 02:37:35;;;;;;;8.90;8.00;;;1.70;98.40;;;;;;5023758;28;20181;-88
2021/01/13 02:40:10;;;;;;;9.30;8.37;;;1.80;97.40;;;;;;5023819;28;20276;-88
2021/01/13 02:42:41;;;;;;;9.27;8.37;;;1.70;97.80;;;;;;5023631;28;20201;-88
2021/01/13 02:45:09;;;;;;;9.83;8.37;;;1.50;98.60;;;;;;5023823;28;20197;-88
2021/01/13 02:47:58;;;;;;;9.60;8.70;;;1.50;98.90;;;;;;5023634;28;20245;-88
2021/01/13 02:50:29;;;;;;;10.73;9.50;;;1.50;98.70;;;;;;5006417;28;20213;-88
2021/01/13 02:53:13;;;;;;;9.87;8.50;;;1.40;98.80;;;;;;5023482;28;20176;-88
2021/01/13 02:55:48;;;;;;;9.80;8.83;;;1.30;98.20;;;;;;5024012;28;20173;-88
2021/01/13 02:58:19;;;;;;;10.00;8.93;;;1.30;99.10;;;;;;5023847;28;20197;-88
2021/01/13 03:00:44;;;;;;;9.60;8.60;;;1.40;98.90;;;;;;5024504;28;20166;-89
2021/01/13 03:03:11;;;;;;;11.00;9.43;;;1.40;99.20;;;;;;5023490;28;20182;-90
2021/01/13 03:05:37;;;;;;;10.13;9.07;;;1.40;99.40;;;;;;5023925;28;20177;-89
2021/01/13 03:08:06;;;;;;;10.43;9.33;;;1.40;98.70;;;;;;5024354;28;20632;-88
2021/01/13 03:10:36;;;;;;;10.50;9.50;;;1.40;98.30;;;;;;5024337;28;20178;-88
2021/01/13 03:13:04;;;;;;;11.50;9.60;;;1.40;97.80;;;;;;5023755;28;20177;-89
2021/01/13 03:15:31;;;;;;;11.40;9.70;;;1.20;99.00;;;;;;5006049;28;20177;-89
2021/01/13 03:18:06;;;;;;;10.90;9.70;;;1.10;99.70;;;;;;5023644;28;20686;-89
2021/01/13 03:20:54;;;;;;;11.97;10.30;;;1.20;99.60;;;;;;5005871;28;20166;-89
2021/01/13 03:23:23;;;;;;;10.13;9.13;;;1.10;99.60;;;;;;5022928;28;20184;-89
2021/01/13 03:26:01;;;;;;;13.33;10.13;;;0.90;99.90;;;;;;5023462;28;20185;-89
2021/01/13 03:28:31;;;;;;;11.23;9.67;;;1.00;99.90;;;;;;5005550;28;20245;-89
2021/01/13 03:30:59;;;;;;;12.03;9.40;;;1.00;99.90;;;;;;5023645;28;20177;-89
2021/01/13 03:33:24;;;;;;;13.43;9.57;;;1.00;99.90;;;;;;5005997;28;20220;-89
2021/01/13 03:36:02;;;;;;;10.33;9.33;;;1.00;99.90;;;;;;5023191;28;20174;-89
2021/01/13 03:38:30;;;;;;;11.07;9.97;;;1.10;99.90;;;;;;5012646;28;20220;-89
2021/01/13 03:41:07;;;;;;;12.83;10.30;;;1.10;99.90;;;;;;5022241;28;20189;-88
2021/01/13 03:43:38;;;;;;;11.57;9.70;;;0.90;99.90;;;;;;5023226;28;20182;-89
2021/01/13 03:46:08;;;;;;;13.10;10.27;;;1.00;99.90;;;;;;5021947;28;20595;-88
2021/01/13 03:48:45;;;;;;;10.47;9.03;;;1.00;99.90;;;;;;5024156;28;20224;-88
2021/01/13 03:51:26;;;;;;;12.30;10.17;;;1.00;99.90;;;;;;5022965;28;20510;-88
2021/01/13 03:53:53;;;;;;;13.50;10.70;;;0.90;99.90;;;;;;5022955;28;20201;-88
2021/01/13 03:56:27;;;;;;;11.57;9.87;;;1.00;99.90;;;;;;5023182;28;20611;-89
2021/01/13 03:58:53;;;;;;;11.17;9.87;;;1.00;99.90;;;;;;5022502;28;20300;-88
2021/01/13 04:01:23;;;;;;;12.07;9.90;;;0.90;99.90;;;;;;5022685;28;20699;-88
2021/01/13 04:04:05;;;;;;;11.23;10.03;;;0.90;99.90;;;;;;5022358;28;20233;-88
2021/01/13 04:06:41;;;;;;;11.53;10.33;;;1.00;99.90;;;;;;5023247;28;20158;-88
2021/01/13 04:09:09;;;;;;;10.00;9.00;;;1.00;99.90;;;;;;5022476;28;20215;-88
2021/01/13 04:11:35;;;;;;;12.20;9.20;;;1.10;99.90;;;;;;5022573;28;20216;-88
2021/01/13 04:14:03;;;;;;;10.40;9.23;;;1.20;99.80;;;;;;5022393;28;20269;-88
2021/01/13 04:16:38;;;;;;;10.53;9.43;;;1.20;98.90;;;;;;5021997;28;20209;-88
2021/01/13 04:19:05;;;;;;;9.90;8.90;;;1.30;99.50;;;;;;5021893;28;20299;-88
2021/01/13 04:21:32;;;;;;;11.90;9.20;;;1.30;99.80;;;;;;5022200;28;20189;-88
2021/01/13 04:23:59;;;;;;;10.00;8.77;;;1.40;98.80;;;;;;5020481;28;20204;-88
2021/01/13 04:26:26;;;;;;;11.77;9.40;;;1.40;98.50;;;;;;5022233;28;20188;-88
2021/01/13 04:28:52;;;;;;;12.10;8.67;;;1.30;98.70;;;;;;5022092;28;20676;-88
2021/01/13 04:31:18;;;;;;;11.53;9.20;;;1.30;99.00;;;;;;5020649;28;20205;-88
2021/01/13 04:33:45;;;;;;;9.13;8.23;;;1.50;98.20;;;;;;5021841;28;20213;-87
2021/01/13 04:36:11;;;;;;;11.10;8.57;;;1.50;97.60;;;;;;5022030;28;20186;-87
2021/01/13 04:38:37;;;;;;;11.90;9.30;;;1.50;97.60;;;;;;5021745;28;20226;-88
2021/01/13 04:41:06;;;;;;;11.17;9.27;;;1.50;97.00;;;;;;5022047;28;20201;-89
2021/01/13 04:43:54;;;;;;;10.80;9.67;;;1.50;96.90;;;;;;5022250;28;20720;-89
2021/01/13 04:46:38;;;;;;;11.40;8.80;;;1.50;96.90;;;;;;5002158;28;20547;-88
2021/01/13 04:49:12;;;;;;;10.43;8.77;;;1.40;96.70;;;;;;5001890;28;20226;-89
2021/01/13 04:51:42;;;;;;;11.47;9.00;;;1.40;97.10;;;;;;5001745;28;20181;-89
2021/01/13 04:54:18;;;;;;;9.80;8.80;;;1.50;97.10;;;;;;5001920;28;20214;-88
2021/01/13 04:56:44;;;;;;;11.47;8.97;;;1.50;97.90;;;;;;4984339;28;20190;-90
2021/01/13 04:59:28;;;;;;;11.60;8.70;;;1.60;96.00;;;;;;5001667;28;20256;-88
2021/01/13 05:02:07;;;;;;;10.10;9.10;;;1.60;96.30;;;;;;4984466;28;20174;-89
2021/01/13 05:05:03;;;;;;;9.60;8.63;;;1.60;96.30;;;;;;5002229;28;20177;-88
2021/01/13 05:07:34;;;;;;;10.63;8.77;;;1.60;95.80;;;;;;4984148;28;20186;-88
2021/01/13 05:10:16;;;;;;;9.57;8.53;;;1.50;96.40;;;;;;5002262;28;20225;-88
2021/01/13 05:12:50;;;;;;;10.27;8.90;;;1.50;96.50;;;;;;4967720;28;20225;-88
2021/01/13 05:15:21;;;;;;;11.40;8.20;;;1.40;96.10;;;;;;4999583;28;20690;-87
2021/01/13 05:17:58;;;;;;;12.63;10.07;;;1.50;96.60;;;;;;5001379;28;20178;-88
2021/01/13 05:20:26;;;;;;;10.50;8.83;;;1.30;94.90;;;;;;5001584;28;20186;-88
2021/01/13 05:22:53;;;;;;;11.17;8.40;;;1.10;96.00;;;;;;5000568;28;20542;-89
2021/01/13 05:25:38;;;;;;;13.07;8.87;;;1.00;96.00;;;;;;4999327;28;20276;-88
2021/01/13 05:28:10;;;;;;;9.10;8.20;;;0.80;96.50;;;;;;5000908;28;20197;-88
2021/01/13 05:30:47;;;;;;;13.37;9.23;;;0.60;98.20;;;;;;5002158;28;20193;-88
2021/01/13 05:33:15;;;;;;;9.63;8.57;;;0.60;99.60;;;;;;5002003;28;20237;-88
2021/01/13 05:35:45;;;;;;;12.10;9.10;;;0.40;99.70;;;;;;4985449;28;20182;-88
2021/01/13 05:38:40;;;;;;;12.70;8.73;;;0.30;99.90;;;;;;4990746;28;20214;-88
2021/01/13 05:41:10;;;;;;;12.40;9.57;;;0.30;99.90;;;;;;4994901;28;20201;-88
2021/01/13 05:43:42;;;;;;;13.60;8.93;;;0.20;99.90;;;;;;5000302;28;20633;-88
2021/01/13 05:46:11;;;;;;;11.27;8.50;;;0.30;99.90;;;;;;5001078;28;20167;-88
2021/01/13 05:48:40;;;;;;;10.07;8.47;;;0.20;99.90;;;;;;5000216;28;20249;-86
2021/01/13 05:51:07;;;;;;;10.73;8.03;;;0.20;99.90;;;;;;5000905;28;20186;-87
2021/01/13 05:53:33;;;;;;;13.10;9.20;;;0.10;99.90;;;;;;4999557;28;20202;-88
2021/01/13 05:56:02;;;;;;;11.17;8.67;;;0.10;99.90;;;;;;5033298;28;20224;-88
2021/01/13 05:58:29;;;;;;;10.53;8.43;;;0.00;99.90;;;;;;5038417;28;20223;-88
2021/01/13 06:00:56;;;;;;;10.50;7.60;;;0.20;99.90;;;;;;5040010;28;20185;-88
2021/01/13 06:03:25;;;;;;;13.27;7.43;;;0.20;99.90;;;;;;5039784;28;20227;-88
2021/01/13 06:05:58;;;;;;;9.33;7.23;;;0.30;99.90;;;;;;5043409;28;20184;-88
2021/01/13 06:08:30;;;;;;;9.40;7.27;;;0.20;99.90;;;;;;5043892;28;20288;-88
2021/01/13 06:10:59;;;;;;;10.83;7.67;;;0.20;99.90;;;;;;5042660;28;20204;-87
2021/01/13 06:13:28;;;;;;;11.00;7.47;;;0.20;99.90;;;;;;5043742;28;20208;-88
2021/01/13 06:15:59;;;;;;;10.37;7.47;;;0.10;99.90;;;;;;5043831;28;20177;-88
2021/01/13 06:18:26;;;;;;;11.37;7.73;;;0.20;99.90;;;;;;5042839;28;20261;-87
2021/01/13 06:20:55;;;;;;;10.27;7.00;;;0.20;99.90;;;;;;5043264;28;20185;-87
2021/01/13 06:23:22;;;;;;;9.07;7.70;;;0.10;99.90;;;;;;5042495;28;20181;-88
2021/01/13 06:25:53;;;;;;;9.77;6.90;;;0.10;99.90;;;;;;5041407;28;20193;-87
2021/01/13 06:28:27;;;;;;;10.50;7.17;;;0.20;99.90;;;;;;5041479;28;20242;-88
2021/01/13 06:31:05;;;;;;;10.37;7.30;;;0.10;99.90;;;;;;5034296;28;20674;-88
2021/01/13 06:33:36;;;;;;;12.13;7.80;;;0.00;99.90;;;;;;5021959;28;20197;-88
2021/01/13 06:36:21;;;;;;;9.13;7.73;;;0.00;99.90;;;;;;5022818;28;20541;-88
2021/01/13 06:39:00;;;;;;;12.47;7.47;;;-0.10;99.90;;;;;;5021209;28;20216;-87
2021/01/13 06:41:28;;;;;;;13.63;7.97;;;-0.10;99.90;;;;;;5022742;28;20193;-87
2021/01/13 06:44:05;;;;;;;13.37;8.10;;;-0.10;99.90;;;;;;5023249;28;20192;-88
2021/01/13 06:46:33;;;;;;;10.43;8.13;;;-0.10;99.90;;;;;;5023016;28;20472;-88
2021/01/13 06:49:14;;;;;;;12.07;7.57;;;0.00;99.90;;;;;;5023232;28;20533;-88
2021/01/13 06:51:50;;;;;;;11.77;7.57;;;0.00;99.90;;;;;;5023482;28;20276;-88
2021/01/13 06:54:18;;;;;;;17.20;7.93;;;-0.10;99.90;;;;;;5023247;28;20201;-88
2021/01/13 06:56:47;;;;;;;14.17;8.60;;;-0.20;99.90;;;;;;5004793;28;20231;-88
2021/01/13 06:59:15;;;;;;;15.40;9.53;;;-0.30;99.90;;;;;;5022055;28;20194;-87
2021/01/13 07:01:52;;;;;;;16.23;9.50;;;-0.20;99.90;;;;;;5021171;28;20182;-87
2021/01/13 07:04:18;;;;;;;14.87;8.23;;;-0.30;99.90;;;;;;5021277;28;20188;-87
2021/01/13 07:07:01;;;;;;;13.93;8.87;;;-0.10;99.90;;;;;;5020755;28;20192;-87
2021/01/13 07:09:45;;;;;;;12.40;7.57;;;-0.20;99.90;;;;;;5020543;28;20663;-87
2021/01/13 07:12:15;;;;;;;13.37;7.60;;;-0.10;99.90;;;;;;5003211;28;20189;-88
2021/01/13 07:14:51;;;;;;;9.80;6.90;;;0.00;99.90;;;;;;5021717;28;20289;-87
2021/01/13 07:17:19;;;;;;;14.43;8.17;;;0.00;99.90;;;;;;5021885;28;20211;-87
2021/01/13 07:20:03;;;;;;;10.13;6.47;;;-0.10;99.90;;;;;;5020281;28;20228;-87
2021/01/13 07:22:29;;;;;;;15.50;7.83;;;-0.10;99.90;;;;;;5002717;28;20212;-87
2021/01/13 07:24:55;;;;;;;10.23;7.23;;;0.00;99.90;;;;;;5019327;28;20198;-87
2021/01/13 07:27:21;;;;;;;11.90;7.40;;;0.10;99.90;;;;;;5027773;28;20185;-86
2021/01/13 07:29:48;;;;;;;9.17;7.30;;;0.20;99.90;;;;;;5039987;28;20272;-87
2021/01/13 07:32:29;;;;;;;9.20;7.03;;;0.20;99.90;;;;;;5038688;28;20185;-87
2021/01/13 07:35:07;;;;;;;13.07;8.40;;;0.20;99.90;;;;;;5019744;28;20201;-87
2021/01/13 07:37:50;;;;;;;12.13;8.37;;;0.10;99.90;;;;;;5020258;28;20244;-86
2021/01/13 07:40:27;;;;;;;12.07;8.23;;;0.00;99.90;;;;;;5020140;28;20192;-87
2021/01/13 07:43:12;;;;;;;12.27;8.33;;;0.00;99.90;;;;;;5019940;28;20647;-87
2021/01/13 07:45:42;;;;;;;12.67;7.80;;;0.10;99.90;;;;;;5021472;28;20273;-86
2021/01/13 07:48:08;;;;;;;12.50;8.50;;;0.10;99.90;;;;;;5020592;28;20209;-86
2021/01/13 07:50:40;;;;;;;13.37;8.30;;;0.10;99.90;;;;;;5021901;28;20584;-86
2021/01/13 07:53:22;;;;;;;17.07;8.73;;;0.10;99.90;;;;;;5002635;28;20219;-87
2021/01/13 07:56:00;;;;;;;16.17;8.83;;;0.10;99.90;;;;;;5022408;28;20184;-86
2021/01/13 07:58:28;;;;;;;13.03;7.83;;;0.10;99.90;;;;;;5020072;28;20198;-87
2021/01/13 08:01:37;;;;;;;12.50;8.40;;;0.20;99.90;;;;;;5016726;28;20177;-87
2021/01/13 08:04:48;;;;;;;19.10;8.10;;;0.40;99.90;;;;;;5019935;28;20215;-88
2021/01/13 08:07:17;;;;;;;13.67;7.70;;;0.30;99.90;;;;;;4994780;28;20198;-86
2021/01/13 08:09:50;;;;;;;10.23;7.77;;;0.40;99.90;;;;;;5021835;28;20202;-86
2021/01/13 08:12:44;;;;;;;12.87;7.80;;;0.50;99.90;;;;;;5020582;28;20235;-87
2021/01/13 08:15:49;;;;;;;12.47;7.37;;;0.40;99.90;;;;;;5002829;28;20213;-86
2021/01/13 08:18:49;;;;;;;11.83;7.47;;;0.40;99.90;;;;;;5020986;28;20201;-87
2021/01/13 08:24:19;;;;;;;10.90;6.87;;;0.50;99.90;;;;;;5022211;28;20197;-87
2021/01/13 08:26:45;;;;;;;14.23;7.53;;;0.40;99.90;;;;;;5004371;28;20185;-87
2021/01/13 08:29:21;;;;;;;9.63;7.33;;;0.40;99.90;;;;;;5024636;28;20244;-86
2021/01/13 08:31:50;;;;;;;14.43;8.37;;;0.40;99.90;;;;;;5018591;28;20188;-87
2021/01/13 08:34:18;;;;;;;9.27;7.33;;;0.50;99.90;;;;;;5022070;28;20220;-87
2021/01/13 08:36:55;;;;;;;11.43;8.10;;;0.50;99.90;;;;;;5023092;28;20196;-87
2021/01/13 08:39:29;;;;;;;9.43;6.83;;;0.50;99.90;;;;;;5028157;28;20775;-86
2021/01/13 08:42:18;;;;;;;10.97;7.50;;;0.50;99.90;;;;;;5024287;28;20288;-88
2021/01/13 08:44:44;;;;;;;11.17;7.60;;;0.60;99.90;;;;;;5023386;28;20196;-87
2021/01/13 08:47:10;;;;;;;11.10;8.20;;;0.50;99.90;;;;;;5022008;28;20178;-87
2021/01/13 08:49:36;;;;;;;15.33;8.07;;;0.60;99.90;;;;;;5022372;28;20244;-87
2021/01/13 08:52:10;;;;;;;11.00;7.27;;;0.60;99.90;;;;;;5022205;28;20186;-87
2021/01/13 08:54:36;;;;;;;11.77;7.33;;;0.70;99.90;;;;;;5022633;28;20206;-87
2021/01/13 08:57:03;;;;;;;11.90;7.40;;;0.90;99.90;;;;;;5021114;28;20241;-88
2021/01/13 08:59:39;;;;;;;10.07;7.10;;;0.90;99.90;;;;;;5021508;28;20217;-88
2021/01/13 09:02:11;;;;;;;12.10;7.03;;;1.00;99.90;;;;;;5001399;28;20249;-88
2021/01/13 09:04:48;;;;;;;11.87;6.67;;;1.00;99.90;;;;;;5005159;28;20173;-91
2021/01/13 09:07:21;;;;;;;13.33;7.83;;;1.00;99.60;;;;;;5002213;28;20166;-89
2021/01/13 09:10:04;;;;;;;10.23;7.23;;;0.90;99.90;;;;;;5034369;28;20249;-88
2021/01/13 09:12:38;;;;;;;15.27;8.00;;;1.10;99.80;;;;;;5024450;28;20236;-87
2021/01/13 09:15:06;;;;;;;10.27;7.20;;;1.00;99.90;;;;;;5024458;28;20212;-87
2021/01/13 09:17:54;;;;;;;14.77;7.47;;;1.00;99.90;;;;;;5024831;28;20192;-88
2021/01/13 09:20:24;;;;;;;12.17;7.53;;;0.90;99.90;;;;;;5024881;28;20254;-89
2021/01/13 09:23:01;;;;;;;12.20;8.23;;;1.00;99.90;;;;;;5042254;28;20184;-88
2021/01/13 09:25:47;;;;;;;10.67;7.53;;;1.00;99.90;;;;;;5041395;28;20184;-88
2021/01/13 09:28:18;;;;;;;11.40;7.50;;;1.00;99.90;;;;;;5032608;28;20201;-88
2021/01/13 09:30:45;;;;;;;9.90;7.87;;;0.90;99.90;;;;;;5005793;28;20188;-88
2021/01/13 09:33:18;;;;;;;11.53;7.83;;;1.10;99.90;;;;;;5022193;28;20192;-86
2021/01/13 09:35:59;;;;;;;14.63;7.70;;;1.00;99.90;;;;;;5021856;28;20178;-88
2021/01/13 09:38:34;;;;;;;8.90;7.33;;;1.10;99.90;;;;;;5009745;28;20256;-89
2021/01/13 09:41:07;;;;;;;11.63;7.23;;;1.20;99.90;;;;;;5023801;28;20181;-88
2021/01/13 09:43:35;;;;;;;11.47;8.00;;;1.20;99.90;;;;;;5026193;28;20647;-88
2021/01/13 09:46:03;;;;;;;11.27;7.27;;;1.20;99.90;;;;;;5007468;28;20204;-88
2021/01/13 09:48:32;;;;;;;15.17;8.00;;;1.30;99.90;;;;;;5024981;28;20230;-88
2021/01/13 09:51:12;;;;;;;9.97;7.83;;;1.30;99.90;;;;;;5026273;28;20192;-87
2021/01/13 09:53:59;;;;;;;9.07;7.90;;;1.40;99.90;;;;;;5026627;28;20208;-87
2021/01/13 09:56:25;;;;;;;15.00;7.60;;;1.40;99.90;;;;;;5026226;28;20647;-87
2021/01/13 09:58:52;;;;;;;9.03;7.00;;;1.40;99.90;;;;;;5025746;28;20201;-87
2021/01/13 10:01:24;;;;;;;9.97;8.23;;;1.60;99.90;;;;;;5025639;28;20273;-87
2021/01/13 10:03:56;;;;;;;10.73;8.60;;;1.60;99.90;;;;;;5025054;28;20201;-87
2021/01/13 10:06:23;;;;;;;11.03;8.40;;;1.50;99.90;;;;;;5022402;28;20198;-87
2021/01/13 10:08:51;;;;;;;10.53;7.73;;;1.50;99.90;;;;;;5024690;28;20248;-87
2021/01/13 10:11:18;;;;;;;11.97;9.10;;;1.50;99.90;;;;;;5025794;28;20225;-87
2021/01/13 10:13:45;;;;;;;11.87;8.23;;;1.60;99.90;;;;;;5026765;28;20205;-87
2021/01/13 10:16:13;;;;;;;11.10;8.47;;;1.60;99.90;;;;;;5024489;28;20174;-88
2021/01/13 10:18:54;;;;;;;12.60;8.00;;;1.80;99.90;;;;;;5025070;28;20198;-87
2021/01/13 10:21:20;;;;;;;12.40;8.30;;;1.80;99.90;;;;;;5024451;28;20166;-87
2021/01/13 10:23:48;;;;;;;8.23;7.20;;;2.00;99.90;;;;;;5022945;28;20182;-87
2021/01/13 10:26:15;;;;;;;13.10;8.60;;;2.10;98.80;;;;;;5023428;28;20560;-87
2021/01/13 10:28:41;;;;;;;11.43;7.53;;;2.10;99.30;;;;;;5024273;28;20204;-87
2021/01/13 10:31:10;;;;;;;11.17;7.83;;;2.10;99.00;;;;;;5023862;28;20208;-87
2021/01/13 10:33:51;;;;;;;10.83;7.87;;;2.00;99.50;;;;;;5022286;28;20213;-88
2021/01/13 10:36:32;;;;;;;9.53;7.00;;;2.10;99.50;;;;;;5024691;28;20325;-88
2021/01/13 10:39:06;;;;;;;13.63;8.13;;;2.20;97.80;;;;;;5022479;28;20221;-87
2021/01/13 10:41:33;;;;;;;11.50;6.73;;;2.20;98.20;;;;;;5023109;28;20174;-86
2021/01/13 10:44:12;;;;;;;10.03;7.73;;;2.20;97.80;;;;;;5023816;28;20751;-87
2021/01/13 10:46:52;;;;;;;12.40;7.23;;;2.20;97.20;;;;;;5023641;28;20186;-87
2021/01/13 10:49:24;;;;;;;11.40;7.20;;;2.30;98.40;;;;;;5023647;28;20204;-86
2021/01/13 10:52:17;;;;;;;9.67;6.87;;;2.40;96.40;;;;;;5022539;28;20177;-86
2021/01/13 10:54:52;;;;;;;7.97;6.57;;;2.40;96.80;;;;;;5013161;28;20719;-87
2021/01/13 10:57:31;;;;;;;8.13;6.93;;;2.60;95.10;;;;;;5024740;28;20196;-87
2021/01/13 11:00:06;;;;;;;9.87;6.67;;;2.60;94.60;;;;;;5023461;28;20209;-85
2021/01/13 11:02:32;;;;;;;8.97;6.70;;;2.60;95.10;;;;;;5024052;28;20188;-86
2021/01/13 11:05:01;;;;;;;7.43;5.90;;;2.60;95.30;;;;;;5023745;28;20193;-86
2021/01/13 11:07:50;;;;;;;11.73;6.80;;;2.60;93.90;;;;;;5007182;28;20817;-86
2021/01/13 11:10:17;;;;;;;11.17;6.27;;;2.60;93.90;;;;;;5003861;28;20526;-87
2021/01/13 11:12:43;;;;;;;9.00;6.83;;;2.60;94.80;;;;;;5021235;28;20186;-88
2021/01/13 11:15:10;;;;;;;11.33;6.47;;;2.70;94.00;;;;;;5025788;28;20787;-87
2021/01/13 11:17:37;;;;;;;10.20;6.10;;;2.60;94.00;;;;;;5024045;28;20201;-88
2021/01/13 11:20:05;;;;;;;14.47;6.80;;;2.60;95.70;;;;;;5024151;28;20656;-87
2021/01/13 11:22:48;;;;;;;9.27;6.67;;;2.70;95.40;;;;;;5006581;28;20185;-87
2021/01/13 11:25:37;;;;;;;13.30;6.70;;;2.70;95.10;;;;;;5006116;28;20212;-87
2021/01/13 11:28:06;;;;;;;8.87;6.50;;;2.80;93.80;;;;;;5022564;28;20209;-87
2021/01/13 11:30:36;;;;;;;9.17;7.30;;;2.90;95.20;;;;;;5023987;28;20220;-87
2021/01/13 11:33:04;;;;;;;7.80;6.93;;;2.90;95.40;;;;;;5019966;28;20265;-87
2021/01/13 11:35:32;;;;;;;8.10;7.13;;;2.90;94.30;;;;;;5019385;28;20297;-87
2021/01/13 11:38:31;;;;;;;10.47;7.13;;;2.90;93.80;;;;;;5021652;28;20222;-87
2021/01/13 11:41:16;;;;;;;14.23;8.10;;;2.80;94.30;;;;;;5021160;28;20188;-88
2021/01/13 11:44:03;;;;;;;8.80;7.90;;;2.80;95.90;;;;;;5003152;28;20217;-88
2021/01/13 11:46:34;;;;;;;11.97;7.73;;;2.80;95.00;;;;;;5019654;28;20186;-88
2021/01/13 11:49:23;;;;;;;9.70;7.33;;;3.00;92.60;;;;;;5021103;28;20213;-88
2021/01/13 11:51:52;;;;;;;9.20;7.43;;;3.10;94.60;;;;;;5016406;28;20239;-88
2021/01/13 11:54:28;;;;;;;10.13;7.07;;;3.20;92.90;;;;;;5020545;28;20235;-88
2021/01/13 11:57:14;;;;;;;10.83;7.53;;;3.40;92.50;;;;;;5022552;28;20185;-88
2021/01/13 11:59:40;;;;;;;10.97;6.90;;;3.40;93.50;;;;;;5021074;28;20291;-88
2021/01/13 12:02:12;;;;;;;9.97;7.70;;;3.40;91.20;;;;;;5001430;28;20190;-87
2021/01/13 12:04:43;;;;;;;9.10;7.17;;;3.40;92.30;;;;;;5004042;28;20194;-88
2021/01/13 12:07:09;;;;;;;10.07;7.53;;;3.50;92.10;;;;;;5019756;28;20228;-88
2021/01/13 12:09:36;;;;;;;11.80;7.60;;;3.50;91.80;;;;;;5019612;28;20275;-88
2021/01/13 12:12:06;;;;;;;11.20;7.83;;;3.50;90.80;;;;;;5019378;28;20182;-87
2021/01/13 12:14:42;;;;;;;11.73;7.60;;;3.50;91.20;;;;;;5018540;28;20256;-88
2021/01/13 12:17:08;;;;;;;8.43;7.13;;;3.50;91.70;;;;;;5021611;28;20268;-88
2021/01/13 12:19:35;;;;;;;8.40;7.37;;;3.50;91.00;;;;;;5020043;28;20198;-88
2021/01/13 12:22:01;;;;;;;11.87;7.40;;;3.70;89.70;;;;;;5018594;28;20186;-88
2021/01/13 12:24:39;;;;;;;13.53;7.67;;;3.60;89.80;;;;;;4981141;28;20725;-88
2021/01/13 12:27:25;;;;;;;8.77;7.20;;;3.60;91.30;;;;;;5001326;28;20189;-88
2021/01/13 12:30:08;;;;;;;12.90;7.70;;;3.70;88.90;;;;;;4983106;28;20210;-88
2021/01/13 12:32:33;;;;;;;10.83;7.20;;;3.90;87.40;;;;;;5021854;28;20185;-87
2021/01/13 12:34:59;;;;;;;8.47;6.93;;;3.90;89.30;;;;;;5010865;28;20219;-88
2021/01/13 12:37:25;;;;;;;9.33;7.07;;;4.00;87.00;;;;;;4998608;28;20193;-88
2021/01/13 12:40:00;;;;;;;9.13;7.10;;;4.10;87.30;;;;;;5017109;28;20252;-88
2021/01/13 12:42:30;;;;;;;7.97;6.77;;;4.40;86.10;;;;;;5016388;28;20169;-89
2021/01/13 12:45:00;;;;;;;9.00;6.40;;;4.60;82.50;;;;;;4998471;28;20582;-88
2021/01/13 12:47:26;;;;;;;8.40;6.20;;;4.60;82.90;;;;;;5017421;28;20201;-88
2021/01/13 12:49:53;;;;;;;9.40;6.60;;;4.60;83.90;;;;;;5017290;28;20248;-88
2021/01/13 12:52:18;;;;;;;8.20;5.77;;;4.70;83.90;;;;;;5018896;28;20227;-88
2021/01/13 12:54:44;;;;;;;8.53;5.73;;;4.80;80.90;;;;;;5014408;28;20205;-88
2021/01/13 12:57:10;;;;;;;11.47;5.97;;;4.90;81.30;;;;;;5017106;28;20186;-88
2021/01/13 12:59:36;;;;;;;8.40;6.03;;;4.70;83.10;;;;;;4998193;28;20205;-88
2021/01/13 13:02:01;;;;;;;8.10;6.03;;;4.70;81.40;;;;;;5015170;28;20185;-88
2021/01/13 13:04:27;;;;;;;10.57;6.23;;;4.70;81.00;;;;;;5014564;28;20186;-89
2021/01/13 13:06:53;;;;;;;9.23;6.03;;;4.70;81.50;;;;;;5016678;28;20187;-88
2021/01/13 13:09:18;;;;;;;9.67;6.17;;;4.40;81.80;;;;;;5004393;28;20206;-88
2021/01/13 13:11:44;;;;;;;9.37;6.43;;;4.30;82.70;;;;;;5003217;28;20624;-89
2021/01/13 13:14:13;;;;;;;10.30;5.73;;;4.20;82.80;;;;;;5020882;28;20206;-89
2021/01/13 13:16:40;;;;;;;7.03;5.50;;;4.20;82.30;;;;;;5003581;28;20178;-88
2021/01/13 13:19:05;;;;;;;8.87;5.20;;;4.20;80.80;;;;;;5020658;28;20213;-88